createdAt,value
2018-05-16T06:32:05.305Z,42.9
2018-05-16T06:33:10.465Z,43.6
2018-05-16T06:34:14.735Z,43.6
2018-05-16T06:35:18.994Z,43.4
2018-05-16T06:36:24.356Z,43.3
2018-05-16T06:37:29.719Z,43.2
2018-05-16T06:38:33.993Z,44.1
2018-05-16T06:39:38.254Z,43.5
2018-05-16T06:40:43.545Z,43.3
2018-05-16T06:41:48.804Z,43.3
2018-05-16T06:42:53.167Z,43
2018-05-16T06:43:58.432Z,42.9
2018-05-16T06:45:03.896Z,42.9
2018-05-16T06:46:09.366Z,42.7
2018-05-16T06:47:13.627Z,42.6
2018-05-16T06:48:18.975Z,43.2
2018-05-16T06:49:26.462Z,42.6
2018-05-16T06:50:30.721Z,42.5
2018-05-16T06:51:35.058Z,42.5
2018-05-16T06:52:40.433Z,42.4
2018-05-16T06:53:45.699Z,42.4
2018-05-16T06:54:49.860Z,43.2
2018-05-16T06:55:54.216Z,42.4
2018-05-16T06:56:59.474Z,42.4
2018-05-16T06:58:04.751Z,42.3
2018-05-16T06:59:10.014Z,42.3
2018-05-16T07:00:14.276Z,42.3
2018-05-16T07:01:18.620Z,42.3
2018-05-16T07:02:23.189Z,42.2
2018-05-16T07:03:27.680Z,42
2018-05-16T07:04:33.014Z,42.1
2018-05-16T07:05:38.480Z,42.1
2018-05-16T07:06:42.939Z,42.2
2018-05-16T07:07:48.416Z,42.1
2018-05-16T07:08:52.752Z,42.1
2018-05-16T07:09:57.217Z,42.1
2018-05-16T07:11:02.557Z,42
2018-05-16T07:12:06.901Z,41.9
2018-05-16T07:13:11.245Z,41.4
2018-05-16T07:14:16.587Z,41.6
2018-05-16T07:15:20.925Z,41.6
2018-05-16T07:16:25.261Z,41.5
2018-05-16T07:17:30.726Z,41.4
2018-05-16T07:18:34.997Z,41.3
2018-05-16T07:19:39.467Z,41.3
2018-05-16T07:20:44.821Z,41.2
2018-05-16T07:21:49.159Z,41.2
2018-05-16T07:22:53.716Z,41.1
2018-05-16T07:23:59.165Z,41.2
2018-05-16T07:25:03.532Z,41.9
2018-05-16T07:26:08.894Z,41
2018-05-16T07:27:17.160Z,41.1
2018-05-16T07:28:22.434Z,40.9
2018-05-16T07:29:26.601Z,41
2018-05-16T07:30:30.864Z,41
2018-05-16T07:31:38.126Z,40.9
2018-05-16T07:32:46.501Z,40.9
2018-05-16T07:33:51.768Z,41.6
2018-05-16T07:34:56.022Z,40.8
2018-05-16T07:36:03.486Z,40.7
2018-05-16T07:37:08.827Z,40.7
2018-05-16T07:38:14.175Z,40.7
2018-05-16T07:39:18.508Z,40.7
2018-05-16T07:40:22.966Z,40.6
2018-05-16T07:41:28.306Z,40.6
2018-05-16T07:42:32.777Z,40.6
2018-05-16T07:43:38.114Z,40.6
2018-05-16T07:44:43.474Z,40.6
2018-05-16T07:45:47.731Z,40.5
2018-05-16T07:46:52.099Z,40.4
2018-05-16T07:47:57.439Z,40.4
2018-05-16T07:49:02.898Z,40.4
2018-05-16T07:50:07.248Z,40.4
2018-05-16T07:51:12.702Z,41.1
2018-05-16T07:52:17.980Z,40.3
2018-05-16T07:53:22.328Z,40.2
2018-05-16T07:54:26.665Z,40.3
2018-05-16T07:55:31.931Z,40.3
2018-05-16T07:56:37.276Z,40.2
2018-05-16T07:57:41.615Z,40.2
2018-05-16T07:58:45.949Z,40.2
2018-05-16T07:59:51.309Z,40.2
2018-05-16T08:00:55.663Z,40.2
2018-05-16T08:02:00.019Z,40.1
2018-05-16T08:03:05.385Z,40.1
2018-05-16T08:04:09.655Z,40.1
2018-05-16T08:05:14.024Z,40.1
2018-05-16T08:06:19.386Z,40
2018-05-16T08:07:24.648Z,40
2018-05-16T08:08:28.915Z,39.9
2018-05-16T08:09:36.274Z,40
2018-05-16T08:10:41.542Z,39.9
2018-05-16T08:11:46.812Z,40.6
2018-05-16T08:12:52.090Z,39.9
2018-05-16T08:13:56.361Z,39.9
2018-05-16T08:15:00.624Z,39.9
2018-05-16T08:16:05.955Z,39.8
2018-05-16T08:17:11.423Z,39.8
2018-05-16T08:18:15.776Z,39.8
2018-05-16T08:19:21.117Z,39.8
2018-05-16T08:20:26.454Z,39.8
2018-05-16T08:21:30.795Z,39.7
2018-05-16T08:22:35.138Z,39.6
2018-05-16T08:23:40.506Z,39.6
2018-05-16T08:24:45.875Z,39.5
2018-05-16T08:25:50.442Z,39.5
2018-05-16T08:26:55.777Z,39.5
2018-05-16T08:28:00.152Z,39.5
2018-05-16T08:29:04.511Z,39.5
2018-05-16T08:30:09.773Z,39.4
2018-05-16T08:31:15.207Z,39.3
2018-05-16T08:32:19.369Z,39.3
2018-05-16T08:33:27.539Z,39.3
2018-05-16T08:34:34.808Z,39.3
2018-05-16T08:35:40.168Z,39.2
2018-05-16T08:36:45.457Z,39.1
2018-05-16T08:37:49.725Z,39.1
2018-05-16T08:38:53.995Z,39.1
2018-05-16T08:39:59.358Z,39
2018-05-16T08:41:04.613Z,39
2018-05-16T08:42:08.979Z,38.8
2018-05-16T08:43:13.254Z,38.2
2018-05-16T08:44:18.612Z,38.7
2018-05-16T08:45:23.875Z,38.4
2018-05-16T08:46:28.035Z,38.8
2018-05-16T08:47:32.392Z,38.6
2018-05-16T08:48:37.661Z,38.6
2018-05-16T08:49:42.928Z,38.3
2018-05-16T08:50:48.296Z,38.1
2018-05-16T08:51:52.655Z,38.4
2018-05-16T08:52:57.032Z,38.4
2018-05-16T08:54:02.293Z,38.4
2018-05-16T08:55:07.659Z,38.5
2018-05-16T08:56:11.821Z,38
2018-05-16T08:57:16.187Z,38.5
2018-05-16T08:58:21.453Z,38.6
2018-05-16T08:59:26.817Z,38.7
2018-05-16T09:00:31.083Z,38.8
2018-05-16T09:01:35.349Z,38.8
2018-05-16T09:02:40.618Z,38.4
2018-05-16T09:03:45.989Z,38.9
2018-05-16T09:04:50.250Z,38.4
2018-05-16T09:05:54.603Z,38.4
2018-05-16T09:06:59.864Z,38.4
2018-05-16T09:08:05.141Z,38.5
2018-05-16T09:09:09.410Z,38.5
2018-05-16T09:10:13.680Z,38.5
2018-05-16T09:11:18.949Z,38
2018-05-16T09:12:24.306Z,37.9
2018-05-16T09:13:28.602Z,38.2
2018-05-16T09:14:32.867Z,38.5
2018-05-16T09:15:40.228Z,38.4
2018-05-16T09:16:45.488Z,38.3
2018-05-16T09:17:50.755Z,38.6
2018-05-16T09:18:55.112Z,38.9
2018-05-16T09:19:59.368Z,39
2018-05-16T09:21:04.623Z,38.4
2018-05-16T09:22:09.982Z,38.5
2018-05-16T09:23:14.251Z,38.9
2018-05-16T09:24:18.537Z,38.7
2018-05-16T09:25:23.802Z,38.1
2018-05-16T09:26:29.166Z,38.3
2018-05-16T09:27:33.425Z,38.3
2018-05-16T09:28:38.801Z,39.1
2018-05-16T09:29:44.064Z,38.6
2018-05-16T09:30:49.423Z,38.5
2018-05-16T09:31:53.677Z,37.9
2018-05-16T09:32:58.044Z,37.8
2018-05-16T09:34:06.311Z,37.9
2018-05-16T09:35:11.701Z,38.2
2018-05-16T09:36:15.861Z,38.1
2018-05-16T09:37:20.118Z,38.4
2018-05-16T09:38:24.389Z,38.6
2018-05-16T09:39:29.747Z,38.5
2018-05-16T09:40:35.012Z,37.8
2018-05-16T09:41:39.378Z,37.7
2018-05-16T09:42:46.856Z,38.3
2018-05-16T09:43:52.201Z,38.8
2018-05-16T09:44:56.549Z,38.9
2018-05-16T09:46:01.120Z,38.9
2018-05-16T09:47:05.380Z,38.9
2018-05-16T09:48:09.849Z,38.7
2018-05-16T09:49:15.324Z,38.7
2018-05-16T09:50:19.787Z,38.7
2018-05-16T09:51:24.197Z,38.6
2018-05-16T09:52:29.562Z,38.6
2018-05-16T09:53:34.033Z,38.5
2018-05-16T09:54:39.497Z,38.2
2018-05-16T09:55:45.047Z,38.6
2018-05-16T09:56:49.400Z,38.6
2018-05-16T09:57:54.747Z,38.7
2018-05-16T09:59:00.209Z,38.8
2018-05-16T10:00:04.678Z,38.2
2018-05-16T10:01:10.042Z,38.1
2018-05-16T10:02:14.386Z,38.4
2018-05-16T10:03:18.735Z,39.1
2018-05-16T10:04:24.206Z,38.4
2018-05-16T10:05:28.667Z,38.7
2018-05-16T10:06:33.011Z,38.8
2018-05-16T10:07:38.381Z,38.7
2018-05-16T10:08:42.738Z,38.8
2018-05-16T10:09:47.151Z,38.8
2018-05-16T10:10:52.590Z,38.8
2018-05-16T10:11:56.933Z,38.8
2018-05-16T10:12:41.472Z,38.8
2018-05-16T10:13:46.739Z,38.7
2018-05-16T10:14:51.899Z,38.9
2018-05-16T10:15:57.263Z,38.9
2018-05-16T10:17:01.599Z,39
2018-05-16T10:18:05.878Z,39.1
2018-05-16T10:19:11.138Z,39
2018-05-16T10:20:16.480Z,38.6
2018-05-16T10:21:20.746Z,38.7
2018-05-16T10:22:25.118Z,38.7
2018-05-16T10:23:30.389Z,38.8
2018-05-16T10:24:35.754Z,38.8
2018-05-16T10:25:40.019Z,38.3
2018-05-16T10:26:44.381Z,38.5
2018-05-16T10:27:49.653Z,38
2018-05-16T10:28:54.916Z,38.1
2018-05-16T10:29:59.257Z,37.9
2018-05-16T10:31:03.601Z,37.9
2018-05-16T10:32:09.065Z,37.9
2018-05-16T10:33:13.564Z,37.9
2018-05-16T10:34:18.135Z,38.2
2018-05-16T10:35:22.599Z,37.8
2018-05-16T10:36:30.056Z,37.7
2018-05-16T10:37:35.526Z,37.9
2018-05-16T10:38:40.084Z,38
2018-05-16T10:39:45.548Z,38.7
2018-05-16T10:40:49.907Z,38.1
2018-05-16T10:41:54.368Z,38
2018-05-16T10:42:59.716Z,37.9
2018-05-16T10:44:04.174Z,38.2
2018-05-16T10:45:09.633Z,38.5
2018-05-16T10:46:14.897Z,39
2018-05-16T10:47:19.160Z,38.9
2018-05-16T10:48:23.523Z,38.9
2018-05-16T10:49:28.783Z,39.1
2018-05-16T10:50:34.154Z,39.2
2018-05-16T10:51:38.528Z,39.4
2018-05-16T10:52:42.702Z,39.5
2018-05-16T10:53:48.158Z,39.6
2018-05-16T10:54:53.440Z,39.7
2018-05-16T10:55:57.781Z,39.5
2018-05-16T10:57:02.145Z,39.7
2018-05-16T10:58:07.485Z,39.9
2018-05-16T10:59:11.851Z,39.9
2018-05-16T11:00:16.184Z,39.7
2018-05-16T11:01:21.646Z,39.7
2018-05-16T11:02:30.009Z,39.8
2018-05-16T11:03:34.273Z,39.7
2018-05-16T11:04:41.636Z,39.7
2018-05-16T11:05:46.897Z,39.8
2018-05-16T11:06:52.251Z,39.7
2018-05-16T11:07:56.551Z,39.8
2018-05-16T11:09:00.915Z,39.5
2018-05-16T11:10:06.282Z,40.3
2018-05-16T11:11:10.637Z,39.7
2018-05-16T11:12:14.899Z,39.8
2018-05-16T11:13:23.168Z,39.5
2018-05-16T11:14:28.438Z,39.7
2018-05-16T11:15:33.800Z,39.7
2018-05-16T11:16:38.058Z,40.3
2018-05-16T11:17:42.523Z,39.7
2018-05-16T11:18:47.691Z,39.7
2018-05-16T11:19:52.956Z,39.4
2018-05-16T11:20:57.219Z,39.6
2018-05-16T11:22:01.591Z,39.8
2018-05-16T11:23:06.943Z,39.6
2018-05-16T11:24:11.533Z,39.9
2018-05-16T11:25:16.868Z,39.8
2018-05-16T11:26:22.336Z,40.1
2018-05-16T11:27:26.697Z,39.9
2018-05-16T11:28:32.163Z,39.8
2018-05-16T11:29:37.495Z,39.8
2018-05-16T11:30:41.858Z,39.6
2018-05-16T11:31:47.216Z,39.4
2018-05-16T11:32:52.587Z,39.5
2018-05-16T11:33:56.952Z,39.5
2018-05-16T11:35:01.410Z,39.4
2018-05-16T11:36:06.754Z,39.3
2018-05-16T11:37:11.093Z,39.7
2018-05-16T11:38:15.448Z,39.6
2018-05-16T11:39:20.807Z,39.2
2018-05-16T11:40:25.147Z,39.5
2018-05-16T11:41:29.511Z,39.2
2018-05-16T11:42:34.974Z,39
2018-05-16T11:43:39.345Z,39.3
2018-05-16T11:44:43.602Z,39.4
2018-05-16T11:45:48.868Z,39.5
2018-05-16T11:46:54.139Z,39.1
2018-05-16T11:47:59.407Z,39.3
2018-05-16T11:49:03.767Z,39.5
2018-05-16T11:50:08.929Z,39.5
2018-05-16T11:51:14.093Z,39.5
2018-05-16T11:52:19.358Z,39.6
2018-05-16T11:53:24.533Z,39.5
2018-05-16T11:54:29.897Z,39.5
2018-05-16T11:55:34.162Z,39.6
2018-05-16T11:56:38.320Z,39.5
2018-05-16T11:57:43.691Z,39.6
2018-05-16T11:58:48.963Z,39.8
2018-05-16T11:59:53.234Z,39.8
2018-05-16T12:00:57.600Z,39.9
2018-05-16T12:02:02.962Z,39.6
2018-05-16T12:03:08.228Z,40
2018-05-16T12:04:12.487Z,39.7
2018-05-16T12:05:16.754Z,39.8
2018-05-16T12:06:22.118Z,39.8
2018-05-16T12:07:27.483Z,40.2
2018-05-16T12:08:31.946Z,40.3
2018-05-16T12:09:37.304Z,40.5
2018-05-16T12:10:42.568Z,40.9
2018-05-16T12:11:46.825Z,41.5
2018-05-16T12:12:51.218Z,41.9
2018-05-16T12:13:58.598Z,41.8
2018-05-16T12:15:03.768Z,41.6
2018-05-16T12:16:08.037Z,41.9
2018-05-16T12:17:12.395Z,41.9
2018-05-16T12:18:17.662Z,42
2018-05-16T12:19:23.121Z,43.2
2018-05-16T12:20:27.390Z,42.7
2018-05-16T12:21:31.710Z,42.3
2018-05-16T12:22:36.874Z,42.3
2018-05-16T12:23:42.144Z,41.7
2018-05-16T12:24:46.517Z,42.5
2018-05-16T12:25:50.874Z,42.5
2018-05-16T12:26:56.135Z,42.5
2018-05-16T12:28:01.404Z,42.3
2018-05-16T12:29:05.814Z,42.4
2018-05-16T12:30:11.090Z,42.3
2018-05-16T12:31:15.585Z,42.4
2018-05-16T12:32:19.929Z,42.3
2018-05-16T12:33:27.280Z,42
2018-05-16T12:34:32.625Z,42.2
2018-05-16T12:35:37.983Z,42.5
2018-05-16T12:36:42.404Z,42.4
2018-05-16T12:37:47.769Z,42.4
2018-05-16T12:38:53.135Z,42.4
2018-05-16T12:39:57.496Z,42.6
2018-05-16T12:41:02.806Z,42.4
2018-05-16T12:42:08.121Z,42.4
2018-05-16T12:43:12.297Z,42.4
2018-05-16T12:44:16.656Z,42
2018-05-16T12:45:21.913Z,42.5
2018-05-16T12:46:27.263Z,42.4
2018-05-16T12:47:31.428Z,42.4
2018-05-16T12:48:35.766Z,42.5
2018-05-16T12:49:40.125Z,42.4
2018-05-16T12:50:45.585Z,42.4
2018-05-16T12:51:50.050Z,42.5
2018-05-16T12:52:55.396Z,42.4
2018-05-16T12:54:00.734Z,42.4
2018-05-16T12:55:05.257Z,42.3
2018-05-16T12:56:10.519Z,42.4
2018-05-16T12:57:15.982Z,42.3
2018-05-16T12:58:20.388Z,41.8
2018-05-16T12:59:25.729Z,41.9
2018-05-16T13:00:31.066Z,41.6
2018-05-16T13:01:35.555Z,41.7
2018-05-16T13:02:40.820Z,42.2
2018-05-16T13:03:46.093Z,42.1
2018-05-16T13:04:50.363Z,41.7
2018-05-16T13:05:54.621Z,41.8
2018-05-16T13:07:00.101Z,42.6
2018-05-16T13:08:04.466Z,42.4
2018-05-16T13:09:11.815Z,42.7
2018-05-16T13:10:17.171Z,42.5
2018-05-16T13:11:22.639Z,42.4
2018-05-16T13:12:26.974Z,42.6
2018-05-16T13:13:31.319Z,42.5
2018-05-16T13:14:38.792Z,43.2
2018-05-16T13:15:43.052Z,42.5
2018-05-16T13:16:47.387Z,42.4
2018-05-16T13:17:52.861Z,42.5
2018-05-16T13:18:57.158Z,42.7
2018-05-16T13:20:01.426Z,42.8
2018-05-16T13:21:06.792Z,42.8
2018-05-16T13:22:12.056Z,43.1
2018-05-16T13:22:46.582Z,43.9
2018-05-16T13:23:50.859Z,44
2018-05-16T13:24:56.215Z,44.1
2018-05-16T13:26:01.475Z,44
2018-05-16T13:27:05.753Z,44.4
2018-05-16T13:28:10.020Z,44.1
2018-05-16T13:29:15.378Z,43.7
2018-05-16T13:30:20.764Z,43.6
2018-05-16T13:31:25.135Z,43.8
2018-05-16T13:32:30.501Z,43.8
2018-05-16T13:33:35.849Z,44.2
2018-05-16T13:34:40.192Z,43.9
2018-05-16T13:35:44.654Z,44
2018-05-16T13:36:50.013Z,44.4
2018-05-16T13:37:54.501Z,44.5
2018-05-16T13:38:59.866Z,45.3
2018-05-16T13:40:05.338Z,44.8
2018-05-16T13:41:09.697Z,44.6
2018-05-16T13:42:15.061Z,44.6
2018-05-16T13:43:20.335Z,45.5
2018-05-16T13:44:24.692Z,45.1
2018-05-16T13:45:29.050Z,45.1
2018-05-16T13:46:34.503Z,45.1
2018-05-16T13:47:38.782Z,45.4
2018-05-16T13:48:43.149Z,45.2
2018-05-16T13:49:48.415Z,45.1
2018-05-16T13:50:53.776Z,44.8
2018-05-16T13:51:58.135Z,45.3
2018-05-16T13:53:02.399Z,45.3
2018-05-16T13:54:07.662Z,45.3
2018-05-16T13:55:12.944Z,45.5
2018-05-16T13:56:17.312Z,46.2
2018-05-16T13:57:21.478Z,46
2018-05-16T13:58:25.852Z,46.5
2018-05-16T13:59:31.112Z,46.2
2018-05-16T14:00:36.376Z,47.2
2018-05-16T14:01:40.646Z,47
2018-05-16T14:02:45.012Z,47.1
2018-05-16T14:03:50.283Z,46.4
2018-05-16T14:04:55.643Z,46.8
2018-05-16T14:05:59.998Z,46
2018-05-16T14:07:05.366Z,46.4
2018-05-16T14:08:13.640Z,45.4
2018-05-16T14:09:18.908Z,45.3
2018-05-16T14:10:23.169Z,45.2
2018-05-16T14:11:27.636Z,44.9
2018-05-16T14:12:32.894Z,44.8
2018-05-16T14:13:37.260Z,44.4
2018-05-16T14:14:41.720Z,44.5
2018-05-16T14:15:47.057Z,44.4
2018-05-16T14:16:51.521Z,44.2
2018-05-16T14:17:58.985Z,44.8
2018-05-16T14:19:04.325Z,43.9
2018-05-16T14:20:08.855Z,43.8
2018-05-16T14:21:14.215Z,43.7
2018-05-16T14:22:19.572Z,43.6
2018-05-16T14:23:27.947Z,43.9
2018-05-16T14:24:32.214Z,44.1
2018-05-16T14:25:37.378Z,43.2
2018-05-16T14:26:42.646Z,43.1
2018-05-16T14:27:48.014Z,43
2018-05-16T14:28:52.275Z,42.9
2018-05-16T14:29:56.542Z,42.8
2018-05-16T14:31:01.796Z,42.7
2018-05-16T14:32:07.160Z,42.5
2018-05-16T14:33:11.525Z,42.3
2018-05-16T14:34:18.890Z,42.4
2018-05-16T14:35:23.460Z,42.1
2018-05-16T14:36:27.882Z,42
2018-05-16T14:37:33.177Z,42
2018-05-16T14:38:38.646Z,42.5
2018-05-16T14:39:42.989Z,42
2018-05-16T14:40:48.326Z,41.9
2018-05-16T14:41:53.659Z,41.9
2018-05-16T14:42:58.135Z,41.9
2018-05-16T14:44:03.507Z,41.8
2018-05-16T14:45:08.866Z,41.9
2018-05-16T14:46:13.125Z,41.9
2018-05-16T14:47:17.385Z,41.8
2018-05-16T14:48:21.762Z,42.2
2018-05-16T14:49:26.924Z,41.8
2018-05-16T14:50:32.379Z,41.8
2018-05-16T14:51:36.743Z,41.8
2018-05-16T14:52:42.113Z,41.7
2018-05-16T14:53:47.387Z,42
2018-05-16T14:54:51.646Z,41.8
2018-05-16T14:55:55.911Z,41.8
2018-05-16T14:57:00.179Z,41.7
2018-05-16T14:58:05.459Z,42.5
2018-05-16T14:59:10.829Z,41.7
2018-05-16T15:00:15.197Z,41.7
2018-05-16T15:01:20.597Z,41.6
2018-05-16T15:02:25.868Z,41.7
2018-05-16T15:03:30.137Z,41.6
2018-05-16T15:04:34.413Z,41.6
2018-05-16T15:05:39.669Z,42.3
2018-05-16T15:06:45.034Z,41.7
2018-05-16T15:07:49.315Z,41.7
2018-05-16T15:08:56.572Z,41.7
2018-05-16T15:10:01.041Z,41.6
2018-05-16T15:11:06.209Z,41.6
2018-05-16T15:12:11.470Z,41.6
2018-05-16T15:13:15.933Z,41.6
2018-05-16T15:14:21.277Z,41.6
2018-05-16T15:15:26.648Z,41.5
2018-05-16T15:16:31.008Z,41.5
2018-05-16T15:17:35.468Z,41.7
2018-05-16T15:18:40.847Z,41.5
2018-05-16T15:19:45.109Z,41.5
2018-05-16T15:20:49.580Z,41.5
2018-05-16T15:21:54.928Z,41.5
2018-05-16T15:22:59.409Z,41.4
2018-05-16T15:24:07.768Z,41.5
2018-05-16T15:25:13.111Z,41.5
2018-05-16T15:26:17.451Z,41.4
2018-05-16T15:27:21.804Z,41.4
2018-05-16T15:28:27.279Z,41.4
2018-05-16T15:29:31.548Z,41.5
2018-05-16T15:30:36.013Z,41.4
2018-05-16T15:31:41.487Z,41.4
2018-05-16T15:32:45.759Z,41.4
2018-05-16T15:33:50.220Z,41.4
2018-05-16T15:34:55.564Z,41.4
2018-05-16T15:36:00.037Z,41.5
2018-05-16T15:37:05.506Z,41.4
2018-05-16T15:38:10.984Z,41.4
2018-05-16T15:39:15.250Z,41.5
2018-05-16T15:40:20.715Z,41.4
2018-05-16T15:41:26.055Z,41.4
2018-05-16T15:42:30.423Z,41.4
2018-05-16T15:43:35.800Z,41.4
2018-05-16T15:44:41.058Z,41.4
2018-05-16T15:45:45.318Z,41.4
2018-05-16T15:46:49.601Z,41.3
2018-05-16T15:47:54.967Z,41.4
2018-05-16T15:49:00.335Z,41.4
2018-05-16T15:50:04.798Z,41.4
2018-05-16T15:51:10.266Z,41.4
2018-05-16T15:52:15.598Z,41.3
2018-05-16T15:53:19.868Z,41.5
2018-05-16T15:54:24.205Z,41.4
2018-05-16T15:55:29.566Z,41.4
2018-05-16T15:56:35.026Z,41.3
2018-05-16T15:57:39.390Z,41.3
2018-05-16T15:58:44.562Z,41.8
2018-05-16T15:59:49.921Z,41.5
2018-05-16T16:00:54.180Z,42.4
2018-05-16T16:01:58.444Z,42.8
2018-05-16T16:03:03.793Z,42.8
2018-05-16T16:04:09.261Z,42.8
2018-05-16T16:05:13.728Z,42.9
2018-05-16T16:06:19.186Z,42.8
2018-05-16T16:07:24.523Z,42.8
2018-05-16T16:08:28.868Z,42.9
2018-05-16T16:09:34.202Z,42.2
2018-05-16T16:10:39.664Z,42.4
2018-05-16T16:11:44.122Z,42.5
2018-05-16T16:12:49.592Z,42.4
2018-05-16T16:13:54.137Z,42.5
2018-05-16T16:14:59.403Z,42.4
2018-05-16T16:16:04.742Z,42.2
2018-05-16T16:17:09.203Z,41.9
2018-05-16T16:18:13.668Z,41.6
2018-05-16T16:19:19.053Z,41.7
2018-05-16T16:20:23.398Z,41.5
2018-05-16T16:21:27.739Z,41.4
2018-05-16T16:22:33.070Z,41.4
2018-05-16T16:23:37.418Z,42.1
2018-05-16T16:24:45.683Z,41.6
2018-05-16T16:25:50.022Z,41.6
2018-05-16T16:26:55.365Z,41.5
2018-05-16T16:27:59.844Z,41.5
2018-05-16T16:29:07.186Z,41.7
2018-05-16T16:30:12.660Z,41.5
2018-05-16T16:31:16.994Z,41.6
2018-05-16T16:32:21.366Z,41.9
2018-05-16T16:33:27.733Z,42.3
2018-05-16T16:34:31.997Z,41.7
2018-05-16T16:35:36.255Z,41.7
2018-05-16T16:36:41.521Z,41.6
2018-05-16T16:37:46.903Z,41.6
2018-05-16T16:38:53.196Z,42.4
2018-05-16T16:39:57.560Z,41.8
2018-05-16T16:41:02.824Z,41.8
2018-05-16T16:42:08.195Z,41.7
2018-05-16T16:43:12.544Z,41.8
2018-05-16T16:44:16.883Z,41.8
2018-05-16T16:45:22.342Z,42.4
2018-05-16T16:46:27.682Z,42.3
2018-05-16T16:47:32.027Z,42.4
2018-05-16T16:48:37.301Z,42.7
2018-05-16T16:49:42.697Z,42.4
2018-05-16T16:50:50.183Z,42.3
2018-05-16T16:51:54.650Z,42.3
2018-05-16T16:52:59.928Z,42.3
2018-05-16T16:54:04.266Z,42.3
2018-05-16T16:55:08.634Z,42.5
2018-05-16T16:56:13.992Z,42.4
2018-05-16T16:57:19.565Z,42.2
2018-05-16T16:58:24.696Z,42.6
2018-05-16T16:59:29.960Z,42.4
2018-05-16T17:00:35.321Z,42.7
2018-05-16T17:01:39.484Z,42.8
2018-05-16T17:02:43.841Z,42.7
2018-05-16T17:03:49.304Z,42.6
2018-05-16T17:04:54.762Z,43
2018-05-16T17:05:59.232Z,43
2018-05-16T17:07:04.574Z,42.8
2018-05-16T17:08:10.056Z,42.7
2018-05-16T17:09:14.402Z,42.6
2018-05-16T17:10:19.774Z,42.5
2018-05-16T17:11:25.243Z,42.6
2018-05-16T17:12:29.704Z,42.4
2018-05-16T17:13:34.984Z,42.6
2018-05-16T17:14:40.327Z,42.6
2018-05-16T17:15:44.669Z,42.8
2018-05-16T17:16:49.178Z,42.7
2018-05-16T17:17:54.518Z,42.7
2018-05-16T17:18:58.854Z,42.8
2018-05-16T17:20:06.191Z,42.5
2018-05-16T17:21:11.548Z,42.5
2018-05-16T17:22:16.812Z,42.4
2018-05-16T17:23:20.984Z,42.3
2018-05-16T17:24:25.246Z,42.5
2018-05-16T17:25:33.513Z,42.6
2018-05-16T17:26:38.881Z,42.6
2018-05-16T17:27:44.142Z,42.7
2018-05-16T17:28:48.507Z,42.6
2018-05-16T17:29:52.776Z,42.6
2018-05-16T17:30:58.141Z,42.6
2018-05-16T17:32:03.402Z,42.6
2018-05-16T17:33:07.658Z,42.7
2018-05-16T17:34:11.735Z,42.6
2018-05-16T17:35:15.897Z,42.6
2018-05-16T17:36:24.163Z,42.6
2018-05-16T17:37:29.518Z,42.6
2018-05-16T17:38:34.092Z,42.4
2018-05-16T17:39:38.557Z,42.5
2018-05-16T17:40:43.917Z,42.4
2018-05-16T17:41:48.264Z,42.4
2018-05-16T17:42:52.737Z,42.3
2018-05-16T17:43:59.074Z,42.4
2018-05-16T17:45:03.537Z,42.4
2018-05-16T17:46:10.930Z,42.4
2018-05-16T17:47:16.200Z,42.4
2018-05-16T17:48:21.473Z,42.3
2018-05-16T17:49:25.943Z,42.3
2018-05-16T17:50:31.280Z,42.3
2018-05-16T17:51:36.613Z,42.3
2018-05-16T17:52:41.075Z,42.2
2018-05-16T17:53:46.608Z,42.3
2018-05-16T17:54:51.963Z,42.3
2018-05-16T17:55:56.337Z,42.3
2018-05-16T17:57:04.593Z,42.3
2018-05-16T17:58:09.859Z,42.3
2018-05-16T17:59:15.120Z,42.3
2018-05-16T18:00:19.485Z,42.3
2018-05-16T18:01:23.846Z,42.2
2018-05-16T18:02:29.205Z,42
2018-05-16T18:03:34.473Z,42.4
2018-05-16T18:04:38.838Z,42.7
2018-05-16T18:05:43.201Z,42
2018-05-16T18:06:48.467Z,42
2018-05-16T18:07:53.736Z,41.9
2018-05-16T18:08:58.003Z,41.9
2018-05-16T18:10:05.463Z,41.9
2018-05-16T18:11:10.819Z,41.8
2018-05-16T18:12:15.090Z,41.8
2018-05-16T18:13:19.461Z,41.7
2018-05-16T18:14:24.622Z,41.8
2018-05-16T18:15:29.875Z,41.7
2018-05-16T18:16:35.132Z,42.4
2018-05-16T18:17:39.398Z,41.7
2018-05-16T18:18:43.669Z,42.3
2018-05-16T18:19:51.035Z,41.6
2018-05-16T18:20:58.563Z,41.6
2018-05-16T18:22:02.927Z,41.6
2018-05-16T18:23:07.280Z,41.6
2018-05-16T18:24:12.646Z,41.7
2018-05-16T18:25:16.976Z,41.6
2018-05-16T18:26:25.446Z,41.6
2018-05-16T18:27:30.809Z,41.6
2018-05-16T18:28:36.168Z,42.3
2018-05-16T18:29:40.505Z,41.7
2018-05-16T18:30:47.834Z,41.7
2018-05-16T18:31:53.212Z,41.7
2018-05-16T18:32:58.489Z,41.7
2018-05-16T18:34:02.754Z,41.7
2018-05-16T18:35:06.920Z,41.7
2018-05-16T18:36:12.186Z,41.7
2018-05-16T18:37:17.445Z,41.7
2018-05-16T18:38:22.819Z,41.7
2018-05-16T18:39:27.084Z,41.8
2018-05-16T18:40:31.346Z,41.8
2018-05-16T18:41:36.613Z,41.8
2018-05-16T18:42:42.004Z,41.8
2018-05-16T18:43:47.082Z,42.3
2018-05-16T18:44:51.454Z,41.8
2018-05-16T18:45:58.710Z,41.8
2018-05-16T18:47:04.076Z,41.8
2018-05-16T18:48:09.450Z,41.8
2018-05-16T18:49:13.789Z,41.8
2018-05-16T18:50:18.054Z,41.8
2018-05-16T18:51:23.418Z,42.5
2018-05-16T18:52:43.270Z,42.3
2018-05-16T18:53:47.548Z,42.3
2018-05-16T18:54:52.816Z,41.8
2018-05-16T18:55:58.182Z,41.7
2018-05-16T18:57:02.467Z,41.7
2018-05-16T18:58:06.816Z,41.7
2018-05-16T18:59:11.981Z,41.7
2018-05-16T19:00:17.245Z,42.4
2018-05-16T19:01:22.511Z,41.7
2018-05-16T19:02:26.684Z,41.7
2018-05-16T19:03:30.956Z,42.3
2018-05-16T19:04:35.223Z,41.7
2018-05-16T19:05:40.693Z,41.8
2018-05-16T19:06:44.875Z,41.7
2018-05-16T19:07:49.263Z,41.7
2018-05-16T19:08:54.540Z,42.3
2018-05-16T19:09:59.803Z,41.7
2018-05-16T19:11:05.068Z,41.6
2018-05-16T19:12:12.329Z,41.6
2018-05-16T19:13:16.595Z,41.5
2018-05-16T19:14:21.841Z,41.6
2018-05-16T19:15:27.102Z,41.5
2018-05-16T19:16:32.468Z,41.4
2018-05-16T19:17:39.825Z,41.4
2018-05-16T19:18:44.090Z,42.3
2018-05-16T19:19:49.459Z,41.6
2018-05-16T19:20:54.727Z,41.6
2018-05-16T19:21:58.897Z,41.7
2018-05-16T19:23:03.273Z,41.8
2018-05-16T19:24:08.537Z,41.7
2018-05-16T19:25:13.895Z,41.5
2018-05-16T19:26:18.257Z,41.5
2018-05-16T19:27:22.521Z,41.4
2018-05-16T19:28:27.798Z,42.1
2018-05-16T19:29:33.067Z,41.4
2018-05-16T19:30:38.428Z,41.4
2018-05-16T19:31:43.898Z,41.4
2018-05-16T19:32:49.255Z,41.4
2018-05-16T19:33:54.624Z,42.1
2018-05-16T19:34:58.992Z,41.5
2018-05-16T19:36:04.359Z,41.4
2018-05-16T19:37:09.821Z,41.4
2018-05-16T19:38:14.171Z,41.4
2018-05-16T19:39:19.516Z,41.4
2018-05-16T19:40:24.989Z,41.3
2018-05-16T19:41:29.338Z,41.3
2018-05-16T19:42:36.811Z,41.3
2018-05-16T19:43:42.166Z,41.8
2018-05-16T19:44:46.533Z,41.4
2018-05-16T19:45:50.874Z,41.3
2018-05-16T19:46:56.138Z,41.3
2018-05-16T19:48:01.510Z,41.3
2018-05-16T19:49:05.877Z,41.5
2018-05-16T19:50:11.243Z,41.4
2018-05-16T19:51:16.507Z,41.4
2018-05-16T19:52:20.766Z,41.3
2018-05-16T19:53:29.044Z,41.3
2018-05-16T19:54:33.316Z,41.2
2018-05-16T19:55:38.678Z,41.2
2018-05-16T19:56:43.934Z,41.1
2018-05-16T19:57:48.194Z,41.2
2018-05-16T19:58:52.573Z,41.7
2018-05-16T19:59:57.847Z,41.1
2018-05-16T20:01:03.215Z,41.1
2018-05-16T20:02:07.581Z,41.1
2018-05-16T20:03:11.906Z,41.1
2018-05-16T20:04:17.078Z,41
2018-05-16T20:05:22.339Z,41.2
2018-05-16T20:06:27.705Z,41
2018-05-16T20:07:31.966Z,40.9
2018-05-16T20:08:37.243Z,41.7
2018-05-16T20:09:42.504Z,41.1
2018-05-16T20:10:47.662Z,41
2018-05-16T20:11:53.021Z,41
2018-05-16T20:12:57.297Z,40.9
2018-05-16T20:14:02.464Z,41.1
2018-05-16T20:15:07.622Z,40.9
2018-05-16T20:16:12.981Z,40.9
2018-05-16T20:17:18.236Z,40.8
2018-05-16T20:18:22.502Z,40.8
2018-05-16T20:19:26.866Z,40.8
2018-05-16T20:20:32.025Z,40.8
2018-05-16T20:21:37.279Z,40.8
2018-05-16T20:22:42.648Z,40.8
2018-05-16T20:23:47.017Z,41.4
2018-05-16T20:24:52.091Z,40.8
2018-05-16T20:25:57.452Z,40.8
2018-05-16T20:27:02.713Z,40.8
2018-05-16T20:28:06.886Z,40.8
2018-05-16T20:29:11.329Z,40.8
2018-05-16T20:30:16.500Z,41.5
2018-05-16T20:31:21.760Z,40.8
2018-05-16T20:32:27.024Z,40.8
2018-05-16T20:33:31.189Z,41
2018-05-16T20:34:35.459Z,40.8
2018-05-16T20:35:39.722Z,41.5
2018-05-16T20:36:47.990Z,40.8
2018-05-16T20:37:53.443Z,40.8
2018-05-16T20:38:57.619Z,41.1
2018-05-16T20:40:01.940Z,40.8
2018-05-16T20:41:07.108Z,40.8
2018-05-16T20:42:12.369Z,40.8
2018-05-16T20:43:17.739Z,40.8
2018-05-16T20:44:22.107Z,40.9
2018-05-16T20:45:26.528Z,40.8
2018-05-16T20:46:31.599Z,40.8
2018-05-16T20:47:36.866Z,40.8
2018-05-16T20:48:41.244Z,41
2018-05-16T20:49:45.515Z,40.8
2018-05-16T20:50:50.883Z,40.8
2018-05-16T20:51:56.153Z,40.8
2018-05-16T20:53:00.429Z,40.8
2018-05-16T20:54:08.697Z,40.9
2018-05-16T20:55:12.961Z,40.8
2018-05-16T20:56:18.423Z,40.8
2018-05-16T20:57:22.779Z,40.8
2018-05-16T20:58:27.047Z,40.8
2018-05-16T20:59:32.206Z,40.8